createdAt,value
2018-09-29T00:00:42.778Z,13.10
2018-09-29T00:03:11.291Z,10.70
2018-09-29T00:05:39.610Z,10.33
2018-09-29T00:08:07.736Z,9.83
2018-09-29T00:10:36.156Z,9.93
2018-09-29T00:13:04.527Z,8.73
2018-09-29T00:15:32.694Z,9.03
2018-09-29T00:18:01.074Z,9.17
2018-09-29T00:20:29.361Z,11.23
2018-09-29T00:22:57.467Z,7.40
2018-09-29T00:25:25.613Z,5.57
2018-09-29T00:27:53.786Z,11.33
2018-09-29T00:30:21.903Z,9.50
2018-09-29T00:32:50.019Z,8.17
2018-09-29T00:35:18.108Z,11.73
2018-09-29T00:37:46.203Z,10.53
2018-09-29T00:40:14.360Z,10.17
2018-09-29T00:42:42.560Z,12.80
2018-09-29T00:45:10.715Z,11.30
2018-09-29T00:47:38.855Z,10.73
2018-09-29T00:50:07.058Z,11.63
2018-09-29T00:52:35.151Z,7.10
2018-09-29T00:55:03.374Z,9.33
2018-09-29T00:57:31.458Z,9.17
2018-09-29T00:59:59.571Z,12.70
2018-09-29T01:02:27.674Z,9.17
2018-09-29T01:04:55.770Z,10.43
2018-09-29T01:07:23.974Z,12.63
2018-09-29T01:09:52.123Z,9.53
2018-09-29T01:12:20.298Z,7.10
2018-09-29T01:14:48.516Z,9.17
2018-09-29T01:17:16.662Z,8.43
2018-09-29T01:19:44.775Z,10.27
2018-09-29T01:22:12.879Z,7.87
2018-09-29T01:24:40.984Z,10.83
2018-09-29T01:27:09.077Z,9.00
2018-09-29T01:29:37.771Z,7.97
2018-09-29T01:32:05.915Z,6.80
2018-09-29T01:34:34.116Z,11.13
2018-09-29T01:37:02.254Z,8.53
2018-09-29T01:39:30.430Z,8.03
2018-09-29T01:41:58.611Z,10.23
2018-09-29T01:44:26.787Z,7.57
2018-09-29T01:46:54.914Z,11.60
2018-09-29T01:49:23.011Z,10.90
2018-09-29T01:51:51.122Z,10.43
2018-09-29T01:54:19.209Z,13.30
2018-09-29T01:56:47.350Z,9.53
2018-09-29T01:59:15.450Z,9.20
2018-09-29T02:01:43.582Z,6.33
2018-09-29T02:04:11.747Z,8.53
2018-09-29T02:06:39.863Z,9.53
2018-09-29T02:09:08.516Z,6.53
2018-09-29T02:11:36.727Z,10.03
2018-09-29T02:14:05.275Z,7.83
2018-09-29T02:16:33.655Z,6.97
2018-09-29T02:19:01.832Z,10.03
2018-09-29T02:21:29.923Z,6.10
2018-09-29T02:23:58.016Z,11.80
2018-09-29T02:26:26.134Z,10.20
2018-09-29T02:28:54.272Z,9.37
2018-09-29T02:31:22.499Z,8.53
2018-09-29T02:33:50.575Z,8.03
2018-09-29T02:36:18.718Z,6.73
2018-09-29T02:38:46.827Z,8.57
2018-09-29T02:41:14.919Z,9.67
2018-09-29T02:43:43.011Z,7.73
2018-09-29T02:46:11.137Z,10.27
2018-09-29T02:48:39.223Z,9.33
2018-09-29T02:51:07.307Z,8.57
2018-09-29T02:53:35.410Z,12.10
2018-09-29T02:56:03.502Z,11.23
2018-09-29T02:58:31.636Z,12.27
2018-09-29T03:00:59.786Z,9.90
2018-09-29T03:03:27.870Z,10.63
2018-09-29T03:05:56.004Z,11.50
2018-09-29T03:08:24.096Z,8.90
2018-09-29T03:10:52.259Z,9.43
2018-09-29T03:13:20.419Z,8.17
2018-09-29T03:15:48.797Z,8.43
2018-09-29T03:18:16.913Z,9.83
2018-09-29T03:20:45.041Z,7.87
2018-09-29T03:23:13.161Z,9.30
2018-09-29T03:25:41.295Z,8.83
2018-09-29T03:28:09.495Z,9.33
2018-09-29T03:30:37.636Z,9.57
2018-09-29T03:33:05.732Z,9.60
2018-09-29T03:35:33.917Z,14.40
2018-09-29T03:38:02.060Z,9.47
2018-09-29T03:40:30.271Z,9.73
2018-09-29T03:42:58.399Z,8.20
2018-09-29T03:45:26.729Z,11.17
2018-09-29T03:47:54.850Z,9.30
2018-09-29T03:50:22.955Z,9.63
2018-09-29T03:52:51.079Z,7.10
2018-09-29T03:55:19.191Z,12.07
2018-09-29T03:57:47.284Z,7.10
2018-09-29T04:00:15.443Z,12.43
2018-09-29T04:02:43.529Z,7.97
2018-09-29T04:05:11.772Z,9.87
2018-09-29T04:07:39.911Z,12.47
2018-09-29T04:10:08.053Z,13.93
2018-09-29T04:12:36.210Z,9.93
2018-09-29T04:15:04.398Z,11.83
2018-09-29T04:17:32.536Z,9.67
2018-09-29T04:20:00.663Z,15.73
2018-09-29T04:22:28.843Z,10.20
2018-09-29T04:24:56.952Z,11.50
2018-09-29T04:27:25.037Z,6.70
2018-09-29T04:29:53.139Z,7.50
2018-09-29T04:32:21.244Z,11.37
2018-09-29T04:34:49.351Z,11.40
2018-09-29T04:37:17.523Z,12.70
2018-09-29T04:39:45.619Z,9.20
2018-09-29T04:42:13.773Z,10.57
2018-09-29T04:44:41.953Z,10.47
2018-09-29T04:47:10.091Z,9.73
2018-09-29T04:49:38.248Z,9.57
2018-09-29T04:52:06.359Z,8.67
2018-09-29T04:54:34.456Z,8.97
2018-09-29T04:57:02.615Z,10.60
2018-09-29T04:59:30.706Z,11.80
2018-09-29T05:01:58.815Z,12.37
2018-09-29T05:04:26.932Z,10.43
2018-09-29T05:06:55.111Z,18.20
2018-09-29T05:09:23.283Z,8.30
2018-09-29T05:11:51.427Z,9.20
2018-09-29T05:14:19.527Z,8.90
2018-09-29T05:16:47.707Z,10.23
2018-09-29T05:19:15.891Z,7.87
2018-09-29T05:21:44.055Z,8.50
2018-09-29T05:24:12.143Z,11.77
2018-09-29T05:26:40.240Z,9.17
2018-09-29T05:29:08.390Z,11.57
2018-09-29T05:31:36.519Z,9.47
2018-09-29T05:34:04.640Z,8.33
2018-09-29T05:36:32.738Z,11.27
2018-09-29T05:39:00.884Z,9.30
2018-09-29T05:41:29.078Z,9.03
2018-09-29T05:43:57.303Z,12.77
2018-09-29T05:46:25.454Z,8.23
2018-09-29T05:48:53.571Z,9.87
2018-09-29T05:51:21.694Z,9.33
2018-09-29T05:53:49.818Z,15.77
2018-09-29T05:56:18.232Z,12.43
2018-09-29T05:58:46.338Z,15.13
2018-09-29T06:01:14.490Z,13.83
2018-09-29T06:03:42.695Z,11.83
2018-09-29T06:06:10.841Z,9.40
2018-09-29T06:08:38.951Z,6.90
2018-09-29T06:11:07.075Z,12.97
2018-09-29T06:13:35.314Z,14.23
2018-09-29T06:16:03.429Z,9.73
2018-09-29T06:18:31.607Z,12.40
2018-09-29T06:20:59.872Z,12.90
2018-09-29T06:23:28.051Z,8.40
2018-09-29T06:25:56.139Z,9.80
2018-09-29T06:28:24.246Z,7.57
2018-09-29T06:30:52.393Z,9.07
2018-09-29T06:33:20.538Z,9.93
2018-09-29T06:35:48.632Z,9.03
2018-09-29T06:38:16.797Z,5.87
2018-09-29T06:40:44.968Z,13.00
2018-09-29T06:43:13.056Z,9.63
2018-09-29T06:45:41.155Z,9.83
2018-09-29T06:48:09.277Z,9.57
2018-09-29T06:50:37.400Z,10.10
2018-09-29T06:53:05.525Z,10.57
2018-09-29T06:55:33.722Z,9.90
2018-09-29T06:58:01.899Z,10.10
2018-09-29T07:00:33.080Z,9.73
2018-09-29T07:03:01.403Z,9.00
2018-09-29T07:05:29.477Z,9.57
2018-09-29T07:07:57.648Z,11.00
2018-09-29T07:10:25.785Z,14.03
2018-09-29T07:12:54.064Z,10.03
2018-09-29T07:15:22.108Z,9.90
2018-09-29T07:17:50.245Z,8.17
2018-09-29T07:20:18.439Z,8.03
2018-09-29T07:22:46.580Z,11.87
2018-09-29T07:25:14.865Z,12.07
2018-09-29T07:27:42.942Z,12.10
2018-09-29T07:30:11.043Z,10.37
2018-09-29T07:32:39.215Z,9.20
2018-09-29T07:35:07.380Z,10.37
2018-09-29T07:37:35.551Z,15.70
2018-09-29T07:40:03.719Z,7.10
2018-09-29T07:42:31.922Z,11.63
2018-09-29T07:45:00.172Z,8.40
2018-09-29T07:47:28.459Z,8.93
2018-09-29T07:49:56.734Z,12.03
2018-09-29T07:52:24.922Z,12.57
2018-09-29T07:54:53.372Z,10.00
2018-09-29T07:57:21.470Z,8.90
2018-09-29T07:59:49.591Z,10.93
2018-09-29T08:02:17.695Z,8.57
2018-09-29T08:04:45.788Z,6.73
2018-09-29T08:07:15.004Z,8.07
2018-09-29T08:09:43.254Z,6.13
2018-09-29T08:12:11.432Z,7.90
2018-09-29T08:14:39.514Z,9.50
2018-09-29T08:17:07.654Z,10.77
2018-09-29T08:19:35.736Z,8.33
2018-09-29T08:22:03.893Z,9.17
2018-09-29T08:24:33.072Z,10.23
2018-09-29T08:27:01.170Z,5.73
2018-09-29T08:29:29.563Z,11.13
2018-09-29T08:31:57.719Z,7.63
2018-09-29T08:34:25.893Z,7.40
2018-09-29T08:36:54.070Z,9.30
2018-09-29T08:39:22.239Z,11.50
2018-09-29T08:41:50.350Z,9.27
2018-09-29T08:44:18.619Z,6.27
2018-09-29T08:46:46.816Z,8.23
2018-09-29T08:49:14.975Z,9.80
2018-09-29T08:51:43.133Z,8.70
2018-09-29T08:54:11.292Z,9.23
2018-09-29T08:56:39.387Z,9.40
2018-09-29T08:59:07.542Z,11.57
2018-09-29T09:01:35.713Z,12.83
2018-09-29T09:04:03.902Z,8.50
2018-09-29T09:06:32.125Z,10.00
2018-09-29T09:09:00.250Z,10.60
2018-09-29T09:11:28.404Z,7.63
2018-09-29T09:13:56.519Z,8.13
2018-09-29T09:16:24.716Z,5.93
2018-09-29T09:18:52.856Z,10.60
2018-09-29T09:21:22.231Z,7.53
2018-09-29T09:23:50.423Z,7.67
2018-09-29T09:26:18.566Z,7.30
2018-09-29T09:28:46.674Z,8.27
2018-09-29T09:31:14.919Z,6.37
2018-09-29T09:33:43.038Z,15.73
2018-09-29T09:36:11.206Z,8.47
2018-09-29T09:38:39.326Z,6.43
2018-09-29T09:41:07.486Z,8.57
2018-09-29T09:43:35.672Z,7.67
2018-09-29T09:46:03.966Z,7.03
2018-09-29T09:48:32.091Z,7.90
2018-09-29T09:51:00.183Z,7.87
2018-09-29T09:53:28.267Z,16.13
2018-09-29T09:55:56.410Z,7.03
2018-09-29T09:58:24.654Z,5.90
2018-09-29T10:00:58.159Z,5.70
2018-09-29T10:03:26.511Z,4.80
2018-09-29T10:05:54.828Z,7.37
2018-09-29T10:08:22.956Z,7.73
2018-09-29T10:10:51.207Z,5.53
2018-09-29T10:13:19.672Z,6.57
2018-09-29T10:15:47.802Z,9.27
2018-09-29T10:18:15.935Z,6.73
2018-09-29T10:20:44.076Z,6.00
2018-09-29T10:23:12.207Z,4.77
2018-09-29T10:25:40.399Z,4.13
2018-09-29T10:28:08.623Z,7.90
2018-09-29T10:30:36.725Z,6.17
2018-09-29T10:33:05.080Z,5.60
2018-09-29T10:35:33.197Z,5.00
2018-09-29T10:38:01.350Z,7.90
2018-09-29T10:40:29.524Z,5.07
2018-09-29T10:42:57.663Z,5.43
2018-09-29T10:45:26.051Z,7.47
2018-09-29T10:47:54.162Z,7.60
2018-09-29T10:50:22.340Z,3.53
2018-09-29T10:52:50.588Z,6.10
2018-09-29T10:55:18.843Z,7.27
2018-09-29T10:57:46.930Z,5.92
2018-09-29T11:00:15.109Z,5.60
2018-09-29T11:02:43.266Z,4.13
2018-09-29T11:05:11.335Z,4.57
2018-09-29T11:07:39.434Z,5.10
2018-09-29T11:10:07.582Z,5.93
2018-09-29T11:12:35.761Z,5.70
2018-09-29T11:15:03.870Z,7.33
2018-09-29T11:17:31.951Z,4.43
2018-09-29T11:20:00.066Z,5.80
2018-09-29T11:22:28.207Z,4.77
2018-09-29T11:24:56.350Z,6.93
2018-09-29T11:27:24.542Z,5.53
2018-09-29T11:29:52.688Z,3.40
2018-09-29T11:32:20.838Z,4.67
2018-09-29T11:34:49.014Z,3.13
2018-09-29T11:37:17.110Z,6.03
2018-09-29T11:39:45.264Z,6.37
2018-09-29T11:42:13.347Z,4.03
2018-09-29T11:44:41.566Z,6.73
2018-09-29T11:47:09.621Z,8.57
2018-09-29T11:49:37.754Z,5.70
2018-09-29T11:52:05.841Z,4.77
2018-09-29T11:54:34.096Z,3.53
2018-09-29T11:57:02.221Z,4.03
2018-09-29T11:59:30.757Z,4.20
2018-09-29T12:01:58.946Z,3.70
2018-09-29T12:04:27.007Z,4.97
2018-09-29T12:06:55.097Z,7.43
2018-09-29T12:09:23.185Z,5.87
2018-09-29T12:11:51.294Z,3.93
2018-09-29T12:14:19.437Z,8.13
2018-09-29T12:16:47.557Z,3.20
2018-09-29T12:19:15.704Z,3.93
2018-09-29T12:21:43.941Z,3.97
2018-09-29T12:24:12.343Z,4.53
2018-09-29T12:26:40.495Z,4.43
2018-09-29T12:29:08.595Z,6.57
2018-09-29T12:31:36.692Z,2.53
2018-09-29T12:34:04.927Z,5.60
2018-09-29T12:36:33.086Z,6.70
2018-09-29T12:39:01.246Z,7.80
2018-09-29T12:41:29.349Z,4.30
2018-09-29T12:43:57.498Z,4.00
2018-09-29T12:46:25.656Z,5.80
2018-09-29T12:48:53.777Z,5.63
2018-09-29T12:51:21.940Z,10.37
2018-09-29T12:53:49.992Z,6.07
2018-09-29T12:56:18.156Z,6.53
2018-09-29T12:58:46.352Z,5.03
2018-09-29T13:01:14.482Z,4.87
2018-09-29T13:03:42.604Z,3.70
2018-09-29T13:06:10.728Z,6.93
2018-09-29T13:08:39.003Z,5.10
2018-09-29T13:11:07.150Z,6.87
2018-09-29T13:13:35.371Z,4.73
2018-09-29T13:16:03.583Z,4.67
2018-09-29T13:18:31.912Z,6.60
2018-09-29T13:21:00.002Z,5.53
2018-09-29T13:23:28.170Z,5.53
2018-09-29T13:25:56.361Z,4.43
2018-09-29T13:28:24.516Z,4.40
2018-09-29T13:30:52.704Z,3.73
2018-09-29T13:33:20.791Z,3.73
2018-09-29T13:35:48.979Z,3.53
2018-09-29T13:38:17.100Z,4.47
2018-09-29T13:40:45.184Z,4.37
2018-09-29T13:43:13.276Z,7.20
2018-09-29T13:45:41.380Z,5.10
2018-09-29T13:48:09.802Z,3.67
2018-09-29T13:50:37.895Z,5.47
2018-09-29T13:53:06.272Z,6.90
2018-09-29T13:55:34.426Z,4.67
2018-09-29T13:58:02.523Z,5.43
2018-09-29T14:00:30.655Z,7.10
2018-09-29T14:02:58.911Z,5.40
2018-09-29T14:05:27.003Z,6.50
2018-09-29T14:07:55.255Z,6.87
2018-09-29T14:10:23.443Z,5.47
2018-09-29T14:12:51.552Z,4.67
2018-09-29T14:15:19.678Z,4.33
2018-09-29T14:17:47.875Z,7.60
2018-09-29T14:20:16.027Z,4.00
2018-09-29T14:22:44.123Z,4.70
2018-09-29T14:25:12.382Z,4.90
2018-09-29T14:27:40.492Z,8.97
2018-09-29T14:30:08.690Z,6.10
2018-09-29T14:32:36.785Z,5.73
2018-09-29T14:35:05.225Z,3.47
2018-09-29T14:37:33.390Z,2.77
2018-09-29T14:40:01.548Z,5.23
2018-09-29T14:42:29.791Z,4.83
2018-09-29T14:44:57.916Z,5.63
2018-09-29T14:47:26.060Z,7.00
2018-09-29T14:49:54.229Z,7.47
2018-09-29T14:52:22.458Z,4.83
2018-09-29T14:54:50.541Z,6.27
2018-09-29T14:57:18.639Z,4.90
2018-09-29T14:59:46.747Z,7.50
2018-09-29T15:02:14.887Z,5.50
2018-09-29T15:04:42.989Z,4.97
2018-09-29T15:07:11.152Z,8.33
2018-09-29T15:09:39.838Z,5.90
2018-09-29T15:12:08.720Z,6.63
2018-09-29T15:14:36.827Z,7.10
2018-09-29T15:17:05.026Z,4.77
2018-09-29T15:19:33.155Z,6.77
2018-09-29T15:22:01.344Z,7.53
2018-09-29T15:24:29.596Z,5.70
2018-09-29T15:26:57.803Z,7.90
2018-09-29T15:29:26.039Z,6.40
2018-09-29T15:31:54.299Z,7.13
2018-09-29T15:34:22.461Z,3.63
2018-09-29T15:36:50.629Z,6.47
2018-09-29T15:39:19.117Z,8.27
2018-09-29T15:41:47.322Z,4.30
2018-09-29T15:44:15.479Z,5.63
2018-09-29T15:46:43.609Z,5.93
2018-09-29T15:49:12.254Z,6.53
2018-09-29T15:51:40.365Z,6.33
2018-09-29T15:54:08.491Z,5.97
2018-09-29T15:56:36.676Z,4.50
2018-09-29T15:59:04.755Z,8.80
2018-09-29T16:01:32.944Z,6.43
2018-09-29T16:04:01.194Z,6.37
2018-09-29T16:06:29.292Z,7.43
2018-09-29T16:08:57.480Z,6.17
2018-09-29T16:11:25.655Z,4.27
2018-09-29T16:13:53.814Z,6.50
2018-09-29T16:16:22.302Z,6.97
2018-09-29T16:18:50.486Z,4.80
2018-09-29T16:21:19.011Z,7.83
2018-09-29T16:23:47.232Z,12.47
2018-09-29T16:26:15.375Z,6.20
2018-09-29T16:28:43.591Z,4.93
2018-09-29T16:31:11.712Z,5.47
2018-09-29T16:33:39.839Z,5.00
2018-09-29T16:36:07.946Z,7.87
2018-09-29T16:38:36.175Z,10.77
2018-09-29T16:41:04.419Z,6.43
2018-09-29T16:43:32.654Z,5.57
2018-09-29T16:46:00.768Z,8.63
2018-09-29T16:48:28.964Z,9.00
2018-09-29T16:50:57.156Z,6.97
2018-09-29T16:53:25.313Z,7.13
2018-09-29T16:55:53.406Z,8.77
2018-09-29T16:58:21.546Z,7.80
2018-09-29T17:00:49.719Z,6.90
2018-09-29T17:03:17.803Z,8.03
2018-09-29T17:05:45.932Z,5.77
2018-09-29T17:08:14.059Z,8.80
2018-09-29T17:10:42.172Z,6.60
2018-09-29T17:13:10.294Z,8.47
2018-09-29T17:15:38.471Z,9.27
2018-09-29T17:18:06.559Z,8.30
2018-09-29T17:20:34.728Z,7.37
2018-09-29T17:23:02.915Z,9.07
2018-09-29T17:25:31.981Z,12.27
2018-09-29T17:28:00.135Z,6.87
2018-09-29T17:30:28.314Z,6.30
2018-09-29T17:32:56.426Z,8.43
2018-09-29T17:35:24.566Z,9.07
2018-09-29T17:37:52.736Z,7.57
2018-09-29T17:40:20.892Z,8.27
2018-09-29T17:42:48.988Z,11.27
2018-09-29T17:45:17.372Z,10.97
2018-09-29T17:47:45.599Z,7.57
2018-09-29T17:50:13.720Z,11.20
2018-09-29T17:52:41.897Z,11.20
2018-09-29T17:55:10.057Z,9.93
2018-09-29T17:57:38.255Z,7.03
2018-09-29T18:00:06.423Z,10.13
2018-09-29T18:02:34.575Z,9.00
2018-09-29T18:05:02.791Z,10.13
2018-09-29T18:07:30.935Z,12.10
2018-09-29T18:09:59.137Z,12.23
2018-09-29T18:12:27.313Z,10.93
2018-09-29T18:14:55.442Z,14.23
2018-09-29T18:17:24.080Z,9.10
2018-09-29T18:19:52.300Z,10.30
2018-09-29T18:22:20.466Z,10.10
2018-09-29T18:24:48.652Z,11.10
2018-09-29T18:27:16.789Z,9.83
2018-09-29T18:29:44.911Z,7.87
2018-09-29T18:32:13.372Z,9.80
2018-09-29T18:34:41.675Z,11.43
2018-09-29T18:37:09.820Z,10.10
2018-09-29T18:39:38.043Z,8.83
2018-09-29T18:42:06.381Z,9.43
2018-09-29T18:44:34.572Z,17.13
2018-09-29T18:47:02.792Z,13.63
2018-09-29T18:49:30.935Z,13.30
2018-09-29T18:51:59.122Z,17.10
2018-09-29T18:54:27.967Z,17.90
2018-09-29T18:56:56.178Z,10.63
2018-09-29T18:59:24.416Z,12.83
2018-09-29T19:01:52.510Z,13.33
2018-09-29T19:04:20.739Z,12.60
2018-09-29T19:06:48.846Z,14.53
2018-09-29T19:09:16.973Z,16.17
2018-09-29T19:11:45.247Z,12.10
2018-09-29T19:14:14.405Z,13.73
2018-09-29T19:16:42.778Z,14.57
2018-09-29T19:19:10.891Z,15.77
2018-09-29T19:21:39.061Z,15.80
2018-09-29T19:24:07.273Z,18.17
2018-09-29T19:26:35.392Z,12.17
2018-09-29T19:29:04.042Z,12.53
2018-09-29T19:31:32.514Z,10.77
2018-09-29T19:34:00.620Z,10.47
2018-09-29T19:36:28.796Z,10.53
2018-09-29T19:38:56.952Z,15.10
2018-09-29T19:41:25.191Z,11.33
2018-09-29T19:43:53.342Z,16.40
2018-09-29T19:46:21.609Z,12.60
2018-09-29T19:48:49.735Z,11.77
2018-09-29T19:51:18.002Z,13.77
2018-09-29T19:53:46.232Z,12.80
2018-09-29T19:56:14.366Z,18.50
2018-09-29T19:58:42.505Z,15.50
2018-09-29T20:01:10.614Z,14.20
2018-09-29T20:03:38.789Z,13.67
2018-09-29T20:06:06.862Z,13.83
2018-09-29T20:08:35.074Z,12.97
2018-09-29T20:11:03.224Z,12.47
2018-09-29T20:13:31.338Z,14.97
2018-09-29T20:15:59.489Z,18.50
2018-09-29T20:18:27.951Z,13.30
2018-09-29T20:20:56.247Z,9.73
2018-09-29T20:23:24.406Z,11.87
2018-09-29T20:25:52.526Z,14.10
2018-09-29T20:28:20.831Z,12.53
2018-09-29T20:30:49.021Z,14.83
2018-09-29T20:33:17.182Z,14.27
2018-09-29T20:35:45.464Z,15.63
2018-09-29T20:38:13.756Z,16.27
2018-09-29T20:40:41.911Z,15.87
2018-09-29T20:43:10.084Z,15.57
2018-09-29T20:45:38.308Z,13.33
2018-09-29T20:48:06.430Z,15.57
2018-09-29T20:50:34.623Z,15.10
2018-09-29T20:53:02.743Z,17.60
2018-09-29T20:55:31.048Z,14.33
2018-09-29T20:57:59.165Z,15.17
2018-09-29T21:00:27.305Z,18.53
2018-09-29T21:02:55.412Z,16.93
2018-09-29T21:05:23.575Z,16.40
2018-09-29T21:07:51.743Z,14.97
2018-09-29T21:10:19.902Z,18.20
2018-09-29T21:12:48.045Z,15.23
2018-09-29T21:15:16.160Z,15.93
2018-09-29T21:17:44.583Z,15.37
2018-09-29T21:20:12.692Z,17.87
2018-09-29T21:22:41.408Z,16.13
2018-09-29T21:25:09.577Z,15.17
2018-09-29T21:27:37.677Z,14.07
2018-09-29T21:30:05.845Z,17.73
2018-09-29T21:32:34.244Z,16.27
2018-09-29T21:35:02.397Z,15.73
2018-09-29T21:37:30.820Z,28.23
2018-09-29T21:39:58.909Z,28.73
2018-09-29T21:42:27.091Z,20.43
2018-09-29T21:44:55.491Z,19.47
2018-09-29T21:47:23.805Z,18.90
2018-09-29T21:49:52.061Z,17.90
2018-09-29T21:52:20.287Z,18.87
2018-09-29T21:54:49.965Z,19.53
2018-09-29T21:57:18.103Z,22.63
2018-09-29T21:59:46.267Z,19.43
2018-09-29T22:02:14.374Z,20.73
2018-09-29T22:04:42.553Z,19.73
2018-09-29T22:07:10.624Z,22.40
2018-09-29T22:09:39.314Z,23.67
2018-09-29T22:12:07.519Z,21.40
2018-09-29T22:14:35.658Z,22.03
2018-09-29T22:17:03.850Z,26.50
2018-09-29T22:19:31.967Z,26.13
2018-09-29T22:22:00.078Z,25.43
2018-09-29T22:24:28.250Z,21.43
2018-09-29T22:26:56.369Z,19.90
2018-09-29T22:29:24.514Z,19.27
2018-09-29T22:31:52.734Z,18.37
2018-09-29T22:34:20.943Z,17.07
2018-09-29T22:36:49.041Z,19.10
2018-09-29T22:39:17.169Z,21.20
2018-09-29T22:41:45.377Z,19.73
2018-09-29T22:44:13.510Z,16.43
2018-09-29T22:46:41.608Z,16.33
2018-09-29T22:49:09.708Z,17.87
2018-09-29T22:51:38.064Z,16.27
2018-09-29T22:54:06.362Z,18.77
2018-09-29T22:56:34.475Z,17.77
2018-09-29T22:59:02.577Z,17.17
2018-09-29T23:01:30.745Z,15.63
2018-09-29T23:03:58.858Z,19.50
2018-09-29T23:06:27.006Z,18.33
2018-09-29T23:08:55.156Z,17.47
2018-09-29T23:11:23.560Z,18.57
2018-09-29T23:13:51.757Z,13.43
2018-09-29T23:16:19.912Z,14.90
2018-09-29T23:18:48.090Z,11.07
2018-09-29T23:21:16.242Z,10.17
2018-09-29T23:23:44.338Z,15.43
2018-09-29T23:26:12.433Z,14.73
2018-09-29T23:28:40.564Z,17.53
2018-09-29T23:31:08.646Z,12.63
2018-09-29T23:33:36.862Z,16.97
2018-09-29T23:36:05.175Z,14.23
2018-09-29T23:38:33.390Z,14.93
2018-09-29T23:41:01.476Z,16.27
2018-09-29T23:43:29.613Z,16.60
2018-09-29T23:45:57.819Z,19.07
2018-09-29T23:48:25.947Z,13.77
2018-09-29T23:50:54.041Z,18.30
2018-09-29T23:53:22.231Z,16.13
2018-09-29T23:55:50.362Z,13.90
2018-09-29T23:58:18.471Z,15.80
